IGO301 VABB-OKKK
Flight info
| Callsign | IGO301 |
|---|---|
| Flight time | N/A |
| Altitude | 35000 |
| Route | VABB/27 N0441F380 RAXE2A SAKUN V2 SUGID N571 MENSA/N0420F340 N571 IVOXI M557 MITIX/N0434F380 M557 TUMAK M600 KUMBO/N0344F240 A453 DEBTI DEBT3C OKKK/33R |
| Aircraft | A321/M-SDFGHIRWY/C |
Departure
| Time | N/A |
|---|---|
| Airport | Chhatrapati Shivaji Maharaj International Airport (VABB) |
Arrival
| Time | 2026-05-08 17:50 |
|---|---|
| Airport | Kuwait International Airport (OKKK) |
| Time | Latitude | Longitude | Altitude | Speed | Heading |
|---|---|---|---|---|---|
| 2026-05-08 16:01 | 24.04397 | 58.86521 | 33727 ft | 473 kts | 293° |
| 2026-05-08 16:01 | 24.05787 | 58.83259 | 33727 ft | 472 kts | 293° |
| 2026-05-08 16:02 | 24.08542 | 58.76782 | 33724 ft | 472 kts | 293° |
| 2026-05-08 16:02 | 24.11313 | 58.70260 | 33724 ft | 472 kts | 293° |
| 2026-05-08 16:03 | 24.14084 | 58.63734 | 33730 ft | 472 kts | 293° |
| 2026-05-08 16:03 | 24.16854 | 58.57205 | 33728 ft | 472 kts | 293° |
| 2026-05-08 16:04 | 24.19155 | 58.51776 | 33733 ft | 472 kts | 293° |
| 2026-05-08 16:04 | 24.22387 | 58.44140 | 33724 ft | 472 kts | 293° |
| 2026-05-08 16:05 | 24.25130 | 58.37648 | 33724 ft | 472 kts | 293° |
| 2026-05-08 16:05 | 24.27875 | 58.31140 | 33727 ft | 472 kts | 293° |
| 2026-05-08 16:06 | 24.30630 | 58.24600 | 33730 ft | 472 kts | 293° |
| 2026-05-08 16:06 | 24.32916 | 58.19168 | 33732 ft | 472 kts | 293° |
| 2026-05-08 16:07 | 24.35662 | 58.12632 | 33733 ft | 471 kts | 293° |
| 2026-05-08 16:07 | 24.38401 | 58.06104 | 33730 ft | 471 kts | 293° |
| 2026-05-08 16:08 | 24.41577 | 57.98522 | 33735 ft | 470 kts | 293° |
| 2026-05-08 16:08 | 24.43851 | 57.93086 | 33735 ft | 470 kts | 293° |
| 2026-05-08 16:09 | 24.46577 | 57.86561 | 33733 ft | 470 kts | 292° |
| 2026-05-08 16:09 | 24.49298 | 57.80037 | 33733 ft | 469 kts | 292° |
| 2026-05-08 16:10 | 24.51914 | 57.73468 | 33732 ft | 469 kts | 291° |
| 2026-05-08 16:10 | 24.54411 | 57.66850 | 33738 ft | 469 kts | 290° |
| 2026-05-08 16:11 | 24.56893 | 57.60236 | 33738 ft | 467 kts | 290° |
| 2026-05-08 16:11 | 24.59363 | 57.53685 | 33737 ft | 467 kts | 290° |
| 2026-05-08 16:12 | 24.61855 | 57.47092 | 33737 ft | 467 kts | 290° |
| 2026-05-08 16:12 | 24.64344 | 57.40505 | 33734 ft | 467 kts | 290° |
| 2026-05-08 16:13 | 24.66827 | 57.33922 | 33745 ft | 466 kts | 290° |
| 2026-05-08 16:13 | 24.69306 | 57.27337 | 33744 ft | 465 kts | 290° |
| 2026-05-08 16:14 | 24.71759 | 57.20810 | 33738 ft | 464 kts | 290° |
| 2026-05-08 16:14 | 24.74225 | 57.14239 | 33742 ft | 464 kts | 290° |
| 2026-05-08 16:15 | 24.76687 | 57.07670 | 33745 ft | 463 kts | 290° |
| 2026-05-08 16:15 | 24.79142 | 57.01109 | 33755 ft | 463 kts | 290° |
| 2026-05-08 16:16 | 24.81588 | 56.94558 | 33756 ft | 463 kts | 289° |
| 2026-05-08 16:16 | 24.84031 | 56.88005 | 33743 ft | 463 kts | 289° |
| 2026-05-08 16:17 | 24.86473 | 56.81449 | 33750 ft | 462 kts | 289° |
| 2026-05-08 16:17 | 24.88909 | 56.74899 | 33741 ft | 461 kts | 289° |
| 2026-05-08 16:18 | 24.91335 | 56.68362 | 33749 ft | 461 kts | 289° |
| 2026-05-08 16:18 | 24.93743 | 56.61863 | 33754 ft | 461 kts | 289° |
| 2026-05-08 16:19 | 24.96163 | 56.55315 | 33742 ft | 461 kts | 288° |
| 2026-05-08 16:19 | 24.98329 | 56.48674 | 33755 ft | 460 kts | 285° |
| 2026-05-08 16:20 | 25.00324 | 56.41957 | 33746 ft | 460 kts | 285° |
| 2026-05-08 16:20 | 25.02309 | 56.35256 | 33746 ft | 459 kts | 285° |
| 2026-05-08 16:21 | 25.04313 | 56.28579 | 33749 ft | 459 kts | 285° |
| 2026-05-08 16:21 | 25.06325 | 56.21900 | 33783 ft | 459 kts | 285° |
| 2026-05-08 16:22 | 25.08320 | 56.15271 | 33775 ft | 458 kts | 285° |
| 2026-05-08 16:22 | 25.09993 | 56.08510 | 33794 ft | 455 kts | 277° |
| 2026-05-08 16:23 | 25.10975 | 56.01610 | 33792 ft | 455 kts | 275° |
| 2026-05-08 16:23 | 25.11822 | 55.94690 | 33801 ft | 455 kts | 275° |
| 2026-05-08 16:24 | 25.12646 | 55.87775 | 33808 ft | 455 kts | 275° |
| 2026-05-08 16:24 | 25.13479 | 55.80861 | 33807 ft | 453 kts | 275° |
| 2026-05-08 16:25 | 25.14566 | 55.73999 | 33809 ft | 454 kts | 279° |
| 2026-05-08 16:25 | 25.15918 | 55.67223 | 33799 ft | 455 kts | 279° |
| 2026-05-08 16:26 | 25.17325 | 55.60419 | 33792 ft | 455 kts | 280° |
| 2026-05-08 16:26 | 25.18733 | 55.53611 | 33784 ft | 455 kts | 280° |
| 2026-05-08 16:27 | 25.20133 | 55.46794 | 33776 ft | 455 kts | 279° |
| 2026-05-08 16:27 | 25.21722 | 55.40018 | 33775 ft | 456 kts | 283° |
| 2026-05-08 16:28 | 25.23606 | 55.33313 | 33775 ft | 457 kts | 284° |
| 2026-05-08 16:28 | 25.25532 | 55.26664 | 33793 ft | 456 kts | 284° |
| 2026-05-08 16:29 | 25.27468 | 55.19986 | 33789 ft | 456 kts | 284° |
| 2026-05-08 16:29 | 25.29395 | 55.13301 | 33796 ft | 456 kts | 284° |
| 2026-05-08 16:30 | 25.31240 | 55.06597 | 33792 ft | 456 kts | 283° |
| 2026-05-08 16:30 | 25.33028 | 54.99872 | 33798 ft | 456 kts | 283° |
| 2026-05-08 16:31 | 25.34815 | 54.93133 | 33796 ft | 457 kts | 283° |
| 2026-05-08 16:31 | 25.36609 | 54.86385 | 33796 ft | 457 kts | 283° |
| 2026-05-08 16:32 | 25.38393 | 54.79685 | 33795 ft | 456 kts | 283° |
| 2026-05-08 16:32 | 25.40182 | 54.72954 | 33793 ft | 456 kts | 283° |
| 2026-05-08 16:33 | 25.41967 | 54.66222 | 33795 ft | 456 kts | 283° |
| 2026-05-08 16:33 | 25.43788 | 54.59488 | 33798 ft | 457 kts | 284° |
| 2026-05-08 16:34 | 25.45755 | 54.52797 | 33798 ft | 457 kts | 284° |
| 2026-05-08 16:34 | 25.47758 | 54.46110 | 33800 ft | 458 kts | 284° |
| 2026-05-08 16:35 | 25.49752 | 54.39406 | 33795 ft | 458 kts | 284° |
| 2026-05-08 16:35 | 25.51728 | 54.32706 | 33799 ft | 457 kts | 284° |
| 2026-05-08 16:36 | 25.53677 | 54.26073 | 33799 ft | 457 kts | 284° |
| 2026-05-08 16:36 | 25.55322 | 54.20464 | 33799 ft | 457 kts | 284° |
| 2026-05-08 16:37 | 25.57610 | 54.12658 | 33802 ft | 458 kts | 284° |
| 2026-05-08 16:37 | 25.59571 | 54.05947 | 33800 ft | 458 kts | 284° |
| 2026-05-08 16:38 | 25.61497 | 53.99231 | 33809 ft | 457 kts | 283° |
| 2026-05-08 16:38 | 25.63400 | 53.92536 | 33809 ft | 457 kts | 283° |
| 2026-05-08 16:39 | 25.65307 | 53.85819 | 33800 ft | 456 kts | 283° |
| 2026-05-08 16:39 | 25.67214 | 53.79097 | 33804 ft | 456 kts | 283° |
| 2026-05-08 16:40 | 25.69115 | 53.72387 | 33802 ft | 455 kts | 283° |
| 2026-05-08 16:40 | 25.70997 | 53.65711 | 33809 ft | 453 kts | 283° |
| 2026-05-08 16:41 | 25.72866 | 53.59055 | 33808 ft | 452 kts | 283° |
| 2026-05-08 16:42 | 25.75648 | 53.49122 | 33818 ft | 452 kts | 282° |
| 2026-05-08 16:42 | 25.77517 | 53.42465 | 33802 ft | 451 kts | 282° |
| 2026-05-08 16:43 | 25.79376 | 53.35830 | 33809 ft | 451 kts | 282° |
| 2026-05-08 16:43 | 25.81235 | 53.29186 | 33814 ft | 451 kts | 282° |
| 2026-05-08 16:44 | 25.83093 | 53.22527 | 33818 ft | 451 kts | 282° |
| 2026-05-08 16:44 | 25.85281 | 53.15982 | 33806 ft | 454 kts | 288° |
| 2026-05-08 16:45 | 25.87822 | 53.09583 | 33818 ft | 455 kts | 289° |
| 2026-05-08 16:45 | 25.90441 | 53.03175 | 33815 ft | 455 kts | 289° |
| 2026-05-08 16:46 | 25.93063 | 52.96765 | 33813 ft | 455 kts | 289° |
| 2026-05-08 16:46 | 25.95670 | 52.90353 | 33824 ft | 455 kts | 289° |
| 2026-05-08 16:47 | 25.98270 | 52.83931 | 33831 ft | 455 kts | 289° |
| 2026-05-08 16:47 | 26.00868 | 52.77505 | 33818 ft | 455 kts | 289° |
| 2026-05-08 16:48 | 26.03538 | 52.71164 | 33829 ft | 456 kts | 290° |
| 2026-05-08 16:48 | 26.06394 | 52.64850 | 33835 ft | 456 kts | 291° |
| 2026-05-08 16:49 | 26.09267 | 52.58550 | 33834 ft | 456 kts | 291° |
| 2026-05-08 16:49 | 26.12118 | 52.52248 | 33834 ft | 456 kts | 291° |
| 2026-05-08 16:50 | 26.14946 | 52.45978 | 33839 ft | 456 kts | 291° |
| 2026-05-08 16:50 | 26.17796 | 52.39650 | 33841 ft | 456 kts | 290° |
| 2026-05-08 16:51 | 26.20630 | 52.33350 | 33846 ft | 455 kts | 290° |
| 2026-05-08 16:51 | 26.23429 | 52.27038 | 33852 ft | 454 kts | 290° |
| 2026-05-08 16:52 | 26.26166 | 52.20711 | 33848 ft | 453 kts | 289° |
| 2026-05-08 16:52 | 26.28895 | 52.14371 | 33853 ft | 453 kts | 289° |
| 2026-05-08 16:53 | 26.32974 | 52.04914 | 33857 ft | 452 kts | 289° |
| 2026-05-08 16:53 | 26.35703 | 51.98598 | 33862 ft | 452 kts | 289° |
| 2026-05-08 16:54 | 26.38223 | 51.92203 | 33862 ft | 449 kts | 285° |
| 2026-05-08 16:54 | 26.40456 | 51.85717 | 33864 ft | 448 kts | 284° |
| 2026-05-08 16:55 | 26.42630 | 51.79223 | 33869 ft | 448 kts | 284° |
| 2026-05-08 16:55 | 26.44787 | 51.72753 | 33870 ft | 448 kts | 284° |
| 2026-05-08 16:56 | 26.46961 | 51.66244 | 33870 ft | 447 kts | 284° |
| 2026-05-08 16:56 | 26.49133 | 51.59730 | 33878 ft | 447 kts | 284° |
| 2026-05-08 16:57 | 26.51302 | 51.53216 | 33879 ft | 447 kts | 284° |
| 2026-05-08 16:57 | 26.53102 | 51.47799 | 33879 ft | 447 kts | 284° |
| 2026-05-08 16:58 | 26.55617 | 51.40215 | 33876 ft | 447 kts | 284° |
| 2026-05-08 16:58 | 26.57426 | 51.34753 | 33884 ft | 447 kts | 284° |
| 2026-05-08 16:59 | 26.59568 | 51.28280 | 33878 ft | 447 kts | 283° |
| 2026-05-08 16:59 | 26.61726 | 51.21761 | 33881 ft | 447 kts | 283° |
| 2026-05-08 17:00 | 26.63875 | 51.15267 | 33883 ft | 447 kts | 283° |
| 2026-05-08 17:00 | 26.66025 | 51.08755 | 33886 ft | 447 kts | 283° |
| 2026-05-08 17:01 | 26.68175 | 51.02234 | 33884 ft | 447 kts | 283° |
| 2026-05-08 17:01 | 26.70291 | 50.95704 | 33885 ft | 446 kts | 283° |
| 2026-05-08 17:02 | 26.72378 | 50.89170 | 33887 ft | 446 kts | 283° |
| 2026-05-08 17:02 | 26.74445 | 50.82685 | 33888 ft | 445 kts | 283° |
| 2026-05-08 17:03 | 26.76525 | 50.76155 | 33897 ft | 445 kts | 283° |
| 2026-05-08 17:03 | 26.78602 | 50.69632 | 33892 ft | 445 kts | 283° |
| 2026-05-08 17:04 | 26.80703 | 50.63107 | 33911 ft | 445 kts | 283° |
| 2026-05-08 17:04 | 26.82896 | 50.56623 | 33897 ft | 445 kts | 284° |
| 2026-05-08 17:05 | 26.85107 | 50.50150 | 33903 ft | 445 kts | 283° |
| 2026-05-08 17:05 | 26.87472 | 50.43763 | 33903 ft | 452 kts | 290° |
| 2026-05-08 17:06 | 26.90632 | 50.37627 | 33905 ft | 455 kts | 293° |
| 2026-05-08 17:06 | 26.93954 | 50.31572 | 33918 ft | 456 kts | 294° |
| 2026-05-08 17:07 | 26.97309 | 50.25520 | 33909 ft | 456 kts | 294° |
| 2026-05-08 17:07 | 27.00620 | 50.19512 | 33907 ft | 455 kts | 294° |
| 2026-05-08 17:08 | 27.03961 | 50.13471 | 33903 ft | 458 kts | 296° |
| 2026-05-08 17:08 | 27.07935 | 50.07790 | 33909 ft | 464 kts | 301° |
| 2026-05-08 17:09 | 27.12119 | 50.02247 | 33910 ft | 465 kts | 302° |
| 2026-05-08 17:09 | 27.16341 | 49.96733 | 33913 ft | 465 kts | 302° |
| 2026-05-08 17:10 | 27.20557 | 49.91210 | 33909 ft | 466 kts | 302° |
| 2026-05-08 17:10 | 27.24762 | 49.85672 | 33909 ft | 465 kts | 302° |
| 2026-05-08 17:11 | 27.28959 | 49.80128 | 33914 ft | 466 kts | 302° |
| 2026-05-08 17:11 | 27.33130 | 49.74613 | 33924 ft | 466 kts | 302° |
| 2026-05-08 17:12 | 27.37327 | 49.69057 | 33910 ft | 467 kts | 301° |
| 2026-05-08 17:12 | 27.41534 | 49.63480 | 33921 ft | 467 kts | 301° |
| 2026-05-08 17:13 | 27.45734 | 49.57905 | 33914 ft | 467 kts | 301° |
| 2026-05-08 17:13 | 27.50410 | 49.52715 | 33920 ft | 478 kts | 310° |
| 2026-05-08 17:14 | 27.55571 | 49.47955 | 33765 ft | 481 kts | 312° |
| 2026-05-08 17:14 | 27.58187 | 49.45621 | 33397 ft | 482 kts | 313° |
| 2026-05-08 17:14 | 27.60830 | 49.43275 | 33014 ft | 483 kts | 313° |
| 2026-05-08 17:15 | 27.63438 | 49.40958 | 32644 ft | 484 kts | 313° |
| 2026-05-08 17:15 | 27.66086 | 49.38599 | 32263 ft | 485 kts | 313° |
| 2026-05-08 17:15 | 27.68736 | 49.36229 | 31907 ft | 486 kts | 313° |
| 2026-05-08 17:15 | 27.71382 | 49.33856 | 31542 ft | 487 kts | 313° |
| 2026-05-08 17:16 | 27.74036 | 49.31470 | 31200 ft | 488 kts | 314° |
| 2026-05-08 17:16 | 27.76691 | 49.29081 | 30853 ft | 487 kts | 314° |
| 2026-05-08 17:16 | 27.79342 | 49.26695 | 30503 ft | 486 kts | 314° |
| 2026-05-08 17:16 | 27.81981 | 49.24318 | 30154 ft | 486 kts | 314° |
| 2026-05-08 17:17 | 27.84628 | 49.21931 | 29782 ft | 485 kts | 314° |
| 2026-05-08 17:17 | 27.87302 | 49.19610 | 29380 ft | 488 kts | 320° |
| 2026-05-08 17:17 | 27.90182 | 49.17578 | 28975 ft | 487 kts | 321° |
| 2026-05-08 17:17 | 27.93084 | 49.15601 | 28595 ft | 485 kts | 323° |
| 2026-05-08 17:18 | 27.95996 | 49.13685 | 28204 ft | 482 kts | 323° |
| 2026-05-08 17:18 | 27.98901 | 49.11802 | 27821 ft | 479 kts | 323° |
| 2026-05-08 17:18 | 28.01789 | 49.09933 | 27433 ft | 477 kts | 323° |
| 2026-05-08 17:18 | 28.04655 | 49.08073 | 27078 ft | 474 kts | 324° |
| 2026-05-08 17:19 | 28.07509 | 49.06211 | 26705 ft | 471 kts | 324° |
| 2026-05-08 17:19 | 28.10303 | 49.04382 | 26360 ft | 469 kts | 324° |
| 2026-05-08 17:19 | 28.13122 | 49.02530 | 25997 ft | 466 kts | 324° |
| 2026-05-08 17:19 | 28.15922 | 49.00686 | 25641 ft | 464 kts | 324° |
| 2026-05-08 17:20 | 28.18706 | 48.98851 | 25292 ft | 462 kts | 324° |
| 2026-05-08 17:20 | 28.21480 | 48.97021 | 24943 ft | 460 kts | 324° |
| 2026-05-08 17:20 | 28.24245 | 48.95195 | 24604 ft | 458 kts | 324° |
| 2026-05-08 17:20 | 28.26992 | 48.93382 | 24267 ft | 456 kts | 324° |
| 2026-05-08 17:21 | 28.29696 | 48.91594 | 23948 ft | 454 kts | 324° |
| 2026-05-08 17:21 | 28.32419 | 48.89793 | 23610 ft | 452 kts | 324° |
| 2026-05-08 17:21 | 28.35133 | 48.87996 | 23235 ft | 450 kts | 324° |
| 2026-05-08 17:21 | 28.37826 | 48.86213 | 22833 ft | 446 kts | 324° |
| 2026-05-08 17:22 | 28.40499 | 48.84443 | 22449 ft | 442 kts | 324° |
| 2026-05-08 17:22 | 28.43149 | 48.82687 | 22068 ft | 438 kts | 324° |
| 2026-05-08 17:22 | 28.45769 | 48.80950 | 21694 ft | 434 kts | 324° |
| 2026-05-08 17:22 | 28.48373 | 48.79221 | 21319 ft | 430 kts | 325° |
| 2026-05-08 17:23 | 28.50915 | 48.77533 | 20958 ft | 427 kts | 325° |
| 2026-05-08 17:23 | 28.53470 | 48.75835 | 20591 ft | 422 kts | 325° |
| 2026-05-08 17:23 | 28.55986 | 48.74131 | 20226 ft | 416 kts | 321° |
| 2026-05-08 17:23 | 28.58075 | 48.71982 | 19869 ft | 396 kts | 307° |
| 2026-05-08 17:24 | 28.59775 | 48.69660 | 19497 ft | 367 kts | 304° |
| 2026-05-08 17:24 | 28.61294 | 48.67447 | 19092 ft | 342 kts | 303° |
| 2026-05-08 17:24 | 28.62695 | 48.65364 | 18692 ft | 321 kts | 303° |
| 2026-05-08 17:24 | 28.64012 | 48.63391 | 18301 ft | 304 kts | 303° |
| 2026-05-08 17:25 | 28.65255 | 48.61522 | 17855 ft | 289 kts | 303° |
| 2026-05-08 17:25 | 28.66426 | 48.59758 | 17399 ft | 277 kts | 303° |
| 2026-05-08 17:25 | 28.67565 | 48.58041 | 16945 ft | 267 kts | 303° |
| 2026-05-08 17:25 | 28.68666 | 48.56380 | 16498 ft | 258 kts | 303° |
| 2026-05-08 17:26 | 28.69736 | 48.54764 | 16016 ft | 252 kts | 304° |
| 2026-05-08 17:26 | 28.70784 | 48.53181 | 15512 ft | 249 kts | 304° |
| 2026-05-08 17:26 | 28.71821 | 48.51614 | 15011 ft | 246 kts | 304° |
| 2026-05-08 17:26 | 28.72849 | 48.50061 | 14508 ft | 244 kts | 305° |
| 2026-05-08 17:27 | 28.73855 | 48.48503 | 14082 ft | 243 kts | 304° |
| 2026-05-08 17:27 | 28.74832 | 48.46959 | 13673 ft | 244 kts | 304° |
| 2026-05-08 17:27 | 28.75824 | 48.45383 | 13213 ft | 246 kts | 304° |
| 2026-05-08 17:27 | 28.76826 | 48.43791 | 12760 ft | 247 kts | 304° |
| 2026-05-08 17:28 | 28.77830 | 48.42194 | 12315 ft | 249 kts | 304° |
| 2026-05-08 17:28 | 28.78842 | 48.40583 | 11867 ft | 250 kts | 304° |
| 2026-05-08 17:28 | 28.79857 | 48.38966 | 11438 ft | 251 kts | 303° |
| 2026-05-08 17:28 | 28.80878 | 48.37341 | 11009 ft | 252 kts | 303° |
| 2026-05-08 17:29 | 28.81903 | 48.35707 | 10590 ft | 253 kts | 303° |
| 2026-05-08 17:29 | 28.82929 | 48.34070 | 10163 ft | 254 kts | 303° |
| 2026-05-08 17:29 | 28.83962 | 48.32424 | 9741 ft | 255 kts | 303° |
| 2026-05-08 17:29 | 28.84990 | 48.30783 | 9290 ft | 255 kts | 303° |
| 2026-05-08 17:30 | 28.86007 | 48.29159 | 8841 ft | 254 kts | 303° |
| 2026-05-08 17:30 | 28.87024 | 48.27537 | 8453 ft | 248 kts | 303° |
| 2026-05-08 17:30 | 28.88018 | 48.25949 | 8025 ft | 243 kts | 303° |
| 2026-05-08 17:30 | 28.88992 | 48.24392 | 7599 ft | 239 kts | 304° |
| 2026-05-08 17:31 | 28.89950 | 48.22861 | 7161 ft | 235 kts | 304° |
| 2026-05-08 17:31 | 28.90896 | 48.21349 | 6752 ft | 232 kts | 304° |
| 2026-05-08 17:31 | 28.91826 | 48.19861 | 6336 ft | 229 kts | 304° |
| 2026-05-08 17:31 | 28.92739 | 48.18399 | 6005 ft | 221 kts | 304° |
| 2026-05-08 17:32 | 28.93599 | 48.17023 | 5934 ft | 203 kts | 304° |
| 2026-05-08 17:32 | 28.94376 | 48.15781 | 5938 ft | 181 kts | 304° |
| 2026-05-08 17:32 | 28.95076 | 48.14667 | 5867 ft | 168 kts | 304° |
| 2026-05-08 17:32 | 28.95756 | 48.13586 | 5614 ft | 167 kts | 304° |
| 2026-05-08 17:33 | 28.96425 | 48.12511 | 5322 ft | 168 kts | 304° |
| 2026-05-08 17:33 | 28.97098 | 48.11414 | 5035 ft | 168 kts | 304° |
| 2026-05-08 17:33 | 28.97873 | 48.10415 | 4750 ft | 169 kts | 318° |
| 2026-05-08 17:33 | 28.98830 | 48.09642 | 4470 ft | 168 kts | 329° |
| 2026-05-08 17:34 | 28.99860 | 48.09036 | 4168 ft | 165 kts | 333° |
| 2026-05-08 17:34 | 29.00888 | 48.08488 | 3963 ft | 158 kts | 334° |
| 2026-05-08 17:34 | 29.01873 | 48.07966 | 3933 ft | 156 kts | 334° |
| 2026-05-08 17:34 | 29.02860 | 48.07441 | 3912 ft | 156 kts | 334° |
| 2026-05-08 17:35 | 29.03844 | 48.06912 | 3783 ft | 156 kts | 334° |
| 2026-05-08 17:35 | 29.04830 | 48.06386 | 3587 ft | 156 kts | 334° |
| 2026-05-08 17:35 | 29.05804 | 48.05869 | 3373 ft | 155 kts | 335° |
| 2026-05-08 17:35 | 29.06782 | 48.05350 | 3168 ft | 155 kts | 335° |
| 2026-05-08 17:36 | 29.07756 | 48.04832 | 2967 ft | 154 kts | 335° |
| 2026-05-08 17:36 | 29.08716 | 48.04322 | 2766 ft | 147 kts | 335° |
| 2026-05-08 17:36 | 29.09617 | 48.03842 | 2597 ft | 140 kts | 335° |
| 2026-05-08 17:36 | 29.10491 | 48.03378 | 2409 ft | 141 kts | 335° |
| 2026-05-08 17:37 | 29.11382 | 48.02903 | 2236 ft | 141 kts | 335° |
| 2026-05-08 17:37 | 29.12272 | 48.02430 | 2052 ft | 141 kts | 335° |
| 2026-05-08 17:37 | 29.13161 | 48.01956 | 1875 ft | 141 kts | 335° |
| 2026-05-08 17:37 | 29.14047 | 48.01484 | 1699 ft | 140 kts | 335° |
| 2026-05-08 17:38 | 29.14934 | 48.01012 | 1509 ft | 140 kts | 335° |
| 2026-05-08 17:38 | 29.15817 | 48.00542 | 1334 ft | 140 kts | 335° |
| 2026-05-08 17:38 | 29.16711 | 48.00062 | 1144 ft | 143 kts | 335° |
| 2026-05-08 17:38 | 29.17613 | 47.99572 | 985 ft | 144 kts | 335° |
| 2026-05-08 17:39 | 29.18517 | 47.99075 | 791 ft | 143 kts | 335° |
| 2026-05-08 17:39 | 29.19408 | 47.98585 | 646 ft | 141 kts | 338° |
| 2026-05-08 17:39 | 29.20297 | 47.98120 | 431 ft | 139 kts | 339° |
| 2026-05-08 17:39 | 29.21176 | 47.97674 | 262 ft | 138 kts | 338° |
| 2026-05-08 17:40 | 29.22017 | 47.97251 | 207 ft | 122 kts | 340° |
| 2026-05-08 17:40 | 29.22952 | 47.96816 | 592 ft | 166 kts | 338° |
| 2026-05-08 17:40 | 29.24151 | 47.96434 | 1253 ft | 195 kts | 0° |
| 2026-05-08 17:40 | 29.25515 | 47.96828 | 2214 ft | 209 kts | 22° |
| 2026-05-08 17:41 | 29.26836 | 47.97588 | 3178 ft | 214 kts | 27° |
| 2026-05-08 17:41 | 29.28178 | 47.98396 | 3705 ft | 220 kts | 27° |
| 2026-05-08 17:41 | 29.29524 | 47.99247 | 3910 ft | 222 kts | 29° |
| 2026-05-08 17:41 | 29.30824 | 48.00215 | 3931 ft | 225 kts | 43° |
| 2026-05-08 17:42 | 29.31592 | 48.01759 | 3949 ft | 226 kts | 75° |
| 2026-05-08 17:42 | 29.31531 | 48.03462 | 3954 ft | 206 kts | 103° |
| 2026-05-08 17:42 | 29.30857 | 48.04880 | 3952 ft | 210 kts | 127° |
| 2026-05-08 17:42 | 29.29792 | 48.06292 | 3910 ft | 252 kts | 131° |
| 2026-05-08 17:43 | 29.28552 | 48.07840 | 3904 ft | 283 kts | 131° |
| 2026-05-08 17:43 | 29.27126 | 48.09597 | 3905 ft | 324 kts | 134° |
| 2026-05-08 17:43 | 29.25325 | 48.11363 | 3924 ft | 356 kts | 144° |
| 2026-05-08 17:43 | 29.23199 | 48.12908 | 3929 ft | 366 kts | 152° |
| 2026-05-08 17:44 | 29.20863 | 48.14098 | 3944 ft | 370 kts | 159° |
| 2026-05-08 17:44 | 29.18430 | 48.15152 | 3937 ft | 376 kts | 160° |
| 2026-05-08 17:44 | 29.15977 | 48.16196 | 3726 ft | 376 kts | 160° |
| 2026-05-08 17:44 | 29.13435 | 48.16886 | 3457 ft | 377 kts | 176° |
| 2026-05-08 17:45 | 29.10846 | 48.16583 | 3205 ft | 375 kts | 197° |
| 2026-05-08 17:45 | 29.08520 | 48.15298 | 2978 ft | 372 kts | 217° |
| 2026-05-08 17:45 | 29.06750 | 48.13184 | 2942 ft | 368 kts | 238° |
| 2026-05-08 17:45 | 29.05743 | 48.10531 | 2940 ft | 364 kts | 258° |
| 2026-05-08 17:46 | 29.05483 | 48.07700 | 2927 ft | 346 kts | 276° |
| 2026-05-08 17:46 | 29.06177 | 48.05272 | 2950 ft | 300 kts | 305° |
| 2026-05-08 17:46 | 29.07580 | 48.03838 | 2910 ft | 258 kts | 336° |
| 2026-05-08 17:46 | 29.09226 | 48.03328 | 2665 ft | 235 kts | 348° |
| 2026-05-08 17:47 | 29.10763 | 48.02959 | 2380 ft | 216 kts | 346° |
| 2026-05-08 17:47 | 29.12151 | 48.02458 | 2087 ft | 201 kts | 338° |
| 2026-05-08 17:47 | 29.13380 | 48.01831 | 1846 ft | 185 kts | 335° |
| 2026-05-08 17:47 | 29.14133 | 48.01430 | 1693 ft | 176 kts | 335° |
| 2026-05-08 17:48 | 29.15209 | 48.00858 | 1460 ft | 162 kts | 335° |
| 2026-05-08 17:48 | 29.16475 | 48.00189 | 1201 ft | 144 kts | 335° |
| 2026-05-08 17:48 | 29.17378 | 47.99710 | 1029 ft | 143 kts | 335° |
| 2026-05-08 17:48 | 29.17986 | 47.99382 | 917 ft | 142 kts | 336° |
| 2026-05-08 17:49 | 29.18879 | 47.98894 | 746 ft | 143 kts | 336° |
| 2026-05-08 17:49 | 29.20064 | 47.98284 | 485 ft | 138 kts | 337° |
| 2026-05-08 17:49 | 29.20642 | 47.97972 | 381 ft | 138 kts | 336° |
| 2026-05-08 17:49 | 29.21503 | 47.97509 | 210 ft | 136 kts | 338° |
| 2026-05-08 17:50 | 29.22297 | 47.97093 | 167 ft | 112 kts | 335° |
| 2026-05-08 17:50 | 29.22933 | 47.96755 | 160 ft | 88 kts | 331° |
| 2026-05-08 17:50 | 29.23270 | 47.96597 | 158 ft | 41 kts | 355° |
| 2026-05-08 17:50 | 29.23500 | 47.96675 | 153 ft | 16 kts | 39° |
| 2026-05-08 17:51 | 29.23568 | 47.96757 | 154 ft | 24 kts | 18° |
| 2026-05-08 17:51 | 29.23704 | 47.96788 | 153 ft | 25 kts | 62° |
| 2026-05-08 17:51 | 29.23758 | 47.96930 | 155 ft | 7 kts | 52° |
| 2026-05-08 17:51 | 29.23804 | 47.96934 | 155 ft | 7 kts | 333° |
| 2026-05-08 17:52 | 29.23840 | 47.96913 | 154 ft | 1 kts | 332° |
| 2026-05-08 17:52 | 29.23841 | 47.96913 | 154 ft | 0 kts | 332° |